Time;durP1;ratioP1;P1;durP2;ratioP2;P2;SDS_P1;SDS_P2;PMS_P1;PMS_P2;Temp;Humidity;BMP_temperature;BMP_pressure;BME280_temperature;BME280_humidity;BME280_pressure;Samples;Min_cycle;Max_cycle;Signal;HPM_P1;HPM_P2
2023/09/18 00:00:39;;;;;;;;;;;;;;;21.64;28.29;98504.38;5022187;28;1221;-77
2023/09/18 00:03:04;;;;;;;;;;;;;;;21.55;28.34;98492.81;5055143;28;2016;-77
2023/09/18 00:05:30;;;;;;;;;;;;;;;21.47;28.37;98491.34;5055022;28;892;-77
2023/09/18 00:07:56;;;;;;;;;;;;;;;21.64;28.06;98489.41;5054955;28;958;-77
2023/09/18 00:10:21;;;;;;;;;;;;;;;21.77;27.84;98493.22;5020448;28;1118;-77
2023/09/18 00:12:47;;;;;;;;;;;;;;;21.77;28.11;98488.34;5053204;28;1080;-77
2023/09/18 00:15:12;;;;;;;;;;;;;;;21.57;28.45;98481.84;5036958;28;1054;-77
2023/09/18 00:17:38;;;;;;;;;;;;;;;21.76;28.00;98480.25;5053388;28;963;-77
2023/09/18 00:20:06;;;;;;;;;;;;;;;21.65;27.96;98483.31;5037006;28;1204;-77
2023/09/18 00:22:32;;;;;;;;;;;;;;;21.80;27.78;98484.63;5037122;28;1028;-78
2023/09/18 00:24:58;;;;;;;;;;;;;;;21.54;28.15;98485.53;5053496;28;1906;-77
2023/09/18 00:27:23;;;;;;;;;;;;;;;21.58;28.05;98486.28;5036777;28;960;-77
2023/09/18 00:29:49;;;;;;;;;;;;;;;21.77;27.83;98482.69;5036694;28;1134;-78
2023/09/18 00:32:14;;;;;;;;;;;;;;;21.67;27.80;98483.69;5036514;28;1271;-77
2023/09/18 00:34:40;;;;;;;;;;;;;;;21.61;28.11;98474.09;5038534;28;926;-77
2023/09/18 00:37:05;;;;;;;;;;;;;;;21.53;28.23;98481.13;5037002;28;966;-77
2023/09/18 00:39:31;;;;;;;;;;;;;;;21.32;28.44;98479.47;5020738;28;851;-77
2023/09/18 00:41:57;;;;;;;;;;;;;;;21.57;28.13;98484.69;5020984;28;1187;-77
2023/09/18 00:44:26;;;;;;;;;;;;;;;21.78;27.78;98481.44;5020584;28;1964;-76
2023/09/18 00:46:52;;;;;;;;;;;;;;;21.91;27.58;98480.78;4997642;28;1096;-77
2023/09/18 00:49:17;;;;;;;;;;;;;;;21.75;27.73;98479.47;4965618;28;1232;-77
2023/09/18 00:51:43;;;;;;;;;;;;;;;21.60;28.07;98475.31;4981696;28;959;-77
2023/09/18 00:54:09;;;;;;;;;;;;;;;21.73;27.87;98472.66;4981648;28;1069;-77
2023/09/18 00:56:35;;;;;;;;;;;;;;;21.67;28.11;98478.03;4981423;28;1371;-77
2023/09/18 00:59:01;;;;;;;;;;;;;;;21.82;27.75;98479.34;4981603;28;1131;-78
2023/09/18 01:01:26;;;;;;;;;;;;;;;21.93;27.57;98464.97;4981317;28;1107;-77
2023/09/18 01:03:53;;;;;;;;;;;;;;;21.59;28.06;98470.88;4981376;28;1906;-76
2023/09/18 01:06:20;;;;;;;;;;;;;;;21.57;27.94;98467.69;4981373;28;1227;-77
2023/09/18 01:08:46;;;;;;;;;;;;;;;21.70;27.96;98471.47;4965276;28;1142;-77
2023/09/18 01:11:27;;;;;;;;;;;;;;;21.79;27.79;98457.53;4981454;28;1031;-77
2023/09/18 01:14:11;;;;;;;;;;;;;;;21.36;28.61;98462.44;5006546;28;1230;-77
2023/09/18 01:16:39;;;;;;;;;;;;;;;21.42;28.29;98460.72;5036814;28;1225;-77
2023/09/18 01:19:05;;;;;;;;;;;;;;;21.67;28.05;98455.38;5074672;28;977;-78
2023/09/18 01:21:30;;;;;;;;;;;;;;;21.85;27.78;98460.66;5039830;28;1728;-78
2023/09/18 01:23:56;;;;;;;;;;;;;;;21.51;28.13;98469.44;5039842;28;1902;-78
2023/09/18 01:26:21;;;;;;;;;;;;;;;21.78;27.89;98453.13;5023263;28;1035;-78
2023/09/18 01:28:47;;;;;;;;;;;;;;;21.62;27.91;98463.56;5056511;28;896;-77
2023/09/18 01:31:12;;;;;;;;;;;;;;;21.79;27.76;98462.41;5039754;28;959;-77
2023/09/18 01:33:38;;;;;;;;;;;;;;;21.50;28.01;98465.81;5056554;28;830;-77
2023/09/18 01:36:07;;;;;;;;;;;;;;;21.67;27.79;98466.69;5039870;28;1264;-77
2023/09/18 01:38:33;;;;;;;;;;;;;;;21.80;27.46;98453.47;5056205;28;958;-77
2023/09/18 01:40:58;;;;;;;;;;;;;;;21.73;27.60;98462.13;5039901;28;958;-77
2023/09/18 01:43:24;;;;;;;;;;;;;;;21.63;28.01;98465.97;5023137;28;1910;-77
2023/09/18 01:45:50;;;;;;;;;;;;;;;21.77;27.59;98468.53;5039069;28;990;-78
2023/09/18 01:48:15;;;;;;;;;;;;;;;21.88;27.76;98459.00;5022676;28;945;-78
2023/09/18 01:50:41;;;;;;;;;;;;;;;21.50;28.15;98473.47;5039200;28;989;-78
2023/09/18 01:53:07;;;;;;;;;;;;;;;21.43;28.20;98467.97;5035543;28;1150;-77
2023/09/18 01:55:33;;;;;;;;;;;;;;;21.78;27.73;98464.44;5040820;28;991;-77
2023/09/18 01:57:58;;;;;;;;;;;;;;;21.69;27.66;98464.22;5022995;28;1342;-77
2023/09/18 02:00:24;;;;;;;;;;;;;;;21.75;27.92;98462.47;5040642;28;1157;-77
2023/09/18 02:02:49;;;;;;;;;;;;;;;21.76;27.57;98472.59;5057161;28;912;-77
2023/09/18 02:05:15;;;;;;;;;;;;;;;21.79;27.55;98463.22;5057201;28;1902;-78
2023/09/18 02:07:40;;;;;;;;;;;;;;;21.63;27.97;98465.97;5056844;28;1182;-76
2023/09/18 02:10:06;;;;;;;;;;;;;;;21.66;27.73;98470.78;5040600;28;1039;-78
2023/09/18 02:12:32;;;;;;;;;;;;;;;21.89;27.38;98466.25;5056886;28;1119;-77
2023/09/18 02:15:05;;;;;;;;;;;;;;;21.53;28.17;98469.78;5038980;28;1232;-77
2023/09/18 02:17:31;;;;;;;;;;;;;;;21.89;27.69;98466.25;5023326;28;1296;-77
2023/09/18 02:19:56;;;;;;;;;;;;;;;21.61;27.84;98462.78;5039070;28;901;-78
2023/09/18 02:22:22;;;;;;;;;;;;;;;21.55;27.99;98467.31;5039131;28;1104;-77
2023/09/18 02:24:48;;;;;;;;;;;;;;;21.61;27.85;98479.78;5038851;28;1906;-77
2023/09/18 02:27:13;;;;;;;;;;;;;;;21.46;28.30;98470.75;5038718;28;934;-77
2023/09/18 02:29:39;;;;;;;;;;;;;;;21.53;28.29;98473.41;5039023;28;1507;-77
2023/09/18 02:32:04;;;;;;;;;;;;;;;21.39;28.63;98484.22;5055594;28;1031;-77
2023/09/18 02:34:30;;;;;;;;;;;;;;;21.52;28.32;98477.50;5038744;28;977;-78
2023/09/18 02:36:57;;;;;;;;;;;;;;;21.38;28.53;98476.94;5039049;28;1173;-77
2023/09/18 02:39:22;;;;;;;;;;;;;;;21.82;27.81;98467.22;5038401;28;977;-78
2023/09/18 02:41:49;;;;;;;;;;;;;;;21.61;28.03;98476.94;5038811;28;1000;-77
2023/09/18 02:44:15;;;;;;;;;;;;;;;21.53;27.98;98467.75;5021923;28;1965;-78
2023/09/18 02:46:42;;;;;;;;;;;;;;;21.71;27.93;98466.59;5052211;28;1107;-77
2023/09/18 02:49:07;;;;;;;;;;;;;;;21.92;27.69;98468.25;5056212;28;964;-77
2023/09/18 02:51:33;;;;;;;;;;;;;;;21.83;27.62;98471.66;5039841;28;1377;-77
2023/09/18 02:53:59;;;;;;;;;;;;;;;21.90;27.53;98459.34;5039528;28;1447;-77
2023/09/18 02:56:24;;;;;;;;;;;;;;;21.67;28.03;98466.69;5055522;28;1144;-77
2023/09/18 02:58:50;;;;;;;;;;;;;;;21.47;28.27;98457.38;5055652;28;1220;-77
2023/09/18 03:01:15;;;;;;;;;;;;;;;21.69;27.80;98457.75;5056893;28;906;-77
2023/09/18 03:03:41;;;;;;;;;;;;;;;21.51;28.34;98466.59;5018195;28;1975;-77
2023/09/18 03:06:07;;;;;;;;;;;;;;;21.54;27.95;98468.56;5018398;28;1190;-78
2023/09/18 03:08:33;;;;;;;;;;;;;;;21.78;27.96;98478.59;5018439;28;1246;-78
2023/09/18 03:11:00;;;;;;;;;;;;;;;21.75;27.84;98473.81;5002033;28;1140;-77
2023/09/18 03:13:26;;;;;;;;;;;;;;;21.64;28.06;98476.06;5034140;28;1256;-77
2023/09/18 03:15:51;;;;;;;;;;;;;;;21.49;28.47;98484.00;5001597;28;1143;-78
2023/09/18 03:18:17;;;;;;;;;;;;;;;21.81;27.84;98479.75;5017995;28;1242;-77
2023/09/18 03:20:42;;;;;;;;;;;;;;;21.84;27.67;98481.72;5001495;28;1056;-78
2023/09/18 03:23:08;;;;;;;;;;;;;;;21.73;27.91;98481.16;5001528;28;1981;-78
2023/09/18 03:25:34;;;;;;;;;;;;;;;21.56;28.25;98480.28;5018026;28;1173;-77
2023/09/18 03:28:00;;;;;;;;;;;;;;;21.68;27.87;98476.00;5001128;28;1196;-77
2023/09/18 03:30:29;;;;;;;;;;;;;;;21.68;27.83;98479.63;5031144;28;1112;-77
2023/09/18 03:32:55;;;;;;;;;;;;;;;21.64;28.39;98487.38;5017198;28;1221;-77
2023/09/18 03:35:23;;;;;;;;;;;;;;;21.77;27.70;98474.19;5034274;28;1528;-77
2023/09/18 03:37:49;;;;;;;;;;;;;;;21.59;28.19;98476.56;5021170;28;1588;-78
2023/09/18 03:40:15;;;;;;;;;;;;;;;21.33;28.74;98476.22;5054933;28;971;-78
2023/09/18 03:42:41;;;;;;;;;;;;;;;21.61;28.10;98473.31;5038803;28;1256;-77
2023/09/18 03:45:07;;;;;;;;;;;;;;;21.64;27.95;98478.88;5056313;28;1910;-77
2023/09/18 03:47:37;;;;;;;;;;;;;;;21.85;27.71;98455.78;5021348;28;1083;-77
2023/09/18 03:50:03;;;;;;;;;;;;;;;21.57;28.54;98473.38;5037704;28;1553;-78
2023/09/18 03:52:29;;;;;;;;;;;;;;;21.79;27.80;98468.88;5038839;28;1349;-77
2023/09/18 03:54:54;;;;;;;;;;;;;;;21.70;27.94;98471.47;5021197;28;1115;-77
2023/09/18 03:57:20;;;;;;;;;;;;;;;21.79;28.11;98468.88;5055206;28;1079;-77
2023/09/18 03:59:45;;;;;;;;;;;;;;;21.89;27.84;98466.25;5055877;28;859;-77
2023/09/18 04:02:12;;;;;;;;;;;;;;;21.58;28.40;98474.97;5054869;28;1259;-77
2023/09/18 04:04:37;;;;;;;;;;;;;;;21.76;28.38;98471.78;5016851;28;1914;-77
2023/09/18 04:07:06;;;;;;;;;;;;;;;21.66;28.62;98481.28;5032477;28;1473;-77
2023/09/18 04:09:31;;;;;;;;;;;;;;;21.65;28.25;98471.97;4996023;28;1390;-77
2023/09/18 04:11:57;;;;;;;;;;;;;;;21.74;28.46;98477.88;5013334;28;1439;-77
2023/09/18 04:14:23;;;;;;;;;;;;;;;21.43;28.67;98473.63;5014038;28;1122;-77
2023/09/18 04:16:48;;;;;;;;;;;;;;;21.75;28.35;98476.63;5014440;28;986;-77
2023/09/18 04:19:14;;;;;;;;;;;;;;;21.82;28.25;98482.19;4974814;28;1232;-78
2023/09/18 04:21:39;;;;;;;;;;;;;;;21.71;28.15;98486.44;4974989;28;972;-79
2023/09/18 04:24:05;;;;;;;;;;;;;;;21.93;28.24;98486.84;4974737;28;1989;-77
2023/09/18 04:26:31;;;;;;;;;;;;;;;21.73;28.46;98493.28;4974258;28;1365;-77
2023/09/18 04:28:57;;;;;;;;;;;;;;;21.81;28.41;98489.09;4974720;28;1083;-78
2023/09/18 04:31:23;;;;;;;;;;;;;;;21.88;28.42;98495.84;4974654;28;1464;-77
2023/09/18 04:33:49;;;;;;;;;;;;;;;21.53;28.87;98493.25;4974809;28;1349;-78
2023/09/18 04:36:15;;;;;;;;;;;;;;;21.65;28.72;98486.13;4988226;28;1149;-77
2023/09/18 04:38:40;;;;;;;;;;;;;;;21.69;28.48;98491.75;4997365;28;1435;-78
2023/09/18 04:41:07;;;;;;;;;;;;;;;21.67;28.78;98492.19;4997528;28;1127;-77
2023/09/18 04:43:35;;;;;;;;;;;;;;;21.87;28.83;98499.91;4985454;28;1910;-78
2023/09/18 04:46:04;;;;;;;;;;;;;;;21.73;28.86;98496.09;4997290;28;1242;-77
2023/09/18 04:48:29;;;;;;;;;;;;;;;21.50;29.25;98507.47;4997396;28;1170;-78
2023/09/18 04:50:55;;;;;;;;;;;;;;;21.67;29.28;98500.69;5012917;28;1250;-77
2023/09/18 04:53:22;;;;;;;;;;;;;;;21.65;29.36;98488.97;5000667;28;1099;-77
2023/09/18 04:55:49;;;;;;;;;;;;;;;21.53;29.36;98500.94;5000654;28;1373;-77
2023/09/18 04:58:15;;;;;;;;;;;;;;;21.68;29.23;98496.63;4996129;28;1333;-78
2023/09/18 05:00:41;;;;;;;;;;;;;;;21.72;29.38;98508.69;5027303;28;1440;-77
2023/09/18 05:03:08;;;;;;;;;;;;;;;21.55;29.74;98504.13;5016897;28;1906;-77
2023/09/18 05:05:34;;;;;;;;;;;;;;;21.80;29.20;98495.97;4995807;28;1379;-77
2023/09/18 05:08:00;;;;;;;;;;;;;;;21.62;29.48;98509.69;4980971;28;1156;-77
2023/09/18 05:10:26;;;;;;;;;;;;;;;21.81;29.27;98500.41;5013753;28;955;-77
2023/09/18 05:12:58;;;;;;;;;;;;;;;21.91;29.15;98503.44;5013607;28;970;-77
2023/09/18 05:15:26;;;;;;;;;;;;;;;21.66;29.66;98504.75;5032615;28;899;-78
2023/09/18 05:17:54;;;;;;;;;;;;;;;21.61;29.82;98496.75;5033577;28;990;-78
2023/09/18 05:20:19;;;;;;;;;;;;;;;21.78;29.68;98506.94;5047850;28;1403;-78
2023/09/18 05:22:45;;;;;;;;;;;;;;;21.87;29.55;98508.41;5058790;28;1503;-77
2023/09/18 05:25:10;;;;;;;;;;;;;;;21.92;29.43;98505.06;5059081;28;1918;-78
2023/09/18 05:27:43;;;;;;;;;;;;;;;21.65;29.68;98503.13;5057838;28;934;-77
2023/09/18 05:30:13;;;;;;;;;;;;;;;21.81;29.75;98497.59;5058882;28;1110;-77
2023/09/18 05:32:39;;;;;;;;;;;;;;;21.73;30.02;98498.94;5040871;28;852;-77
2023/09/18 05:35:06;;;;;;;;;;;;;;;21.64;29.84;98498.69;5059197;28;970;-77
2023/09/18 05:37:35;;;;;;;;;;;;;;;21.85;30.06;98495.47;5057419;28;1372;-77
2023/09/18 05:40:00;;;;;;;;;;;;;;;21.71;30.16;98501.41;5057790;28;1105;-77
2023/09/18 05:42:26;;;;;;;;;;;;;;;21.64;30.05;98500.75;5059082;28;918;-77
2023/09/18 05:44:51;;;;;;;;;;;;;;;21.72;30.19;98496.56;5059105;28;1909;-77
2023/09/18 05:47:17;;;;;;;;;;;;;;;21.80;30.14;98503.66;5073875;28;1669;-77
2023/09/18 05:49:42;;;;;;;;;;;;;;;21.69;30.45;98498.19;5040985;28;962;-77
2023/09/18 05:52:08;;;;;;;;;;;;;;;21.61;30.40;98502.41;5039542;28;1585;-78
2023/09/18 05:54:33;;;;;;;;;;;;;;;21.77;30.06;98499.69;5057094;28;1136;-77
2023/09/18 05:56:59;;;;;;;;;;;;;;;21.88;30.01;98499.47;5040692;28;1177;-77
2023/09/18 05:59:24;;;;;;;;;;;;;;;21.96;30.02;98498.06;5058479;28;937;-77
2023/09/18 06:01:50;;;;;;;;;;;;;;;21.87;30.09;98502.75;5056626;28;1443;-78
2023/09/18 06:04:16;;;;;;;;;;;;;;;21.82;30.19;98501.22;5039247;28;1967;-77
2023/09/18 06:06:42;;;;;;;;;;;;;;;21.79;30.18;98500.03;5039082;28;1187;-78
2023/09/18 06:09:07;;;;;;;;;;;;;;;21.44;30.93;98507.16;5038487;28;1366;-77
2023/09/18 06:11:33;;;;;;;;;;;;;;;21.70;30.54;98505.47;5039262;28;960;-77
2023/09/18 06:13:58;;;;;;;;;;;;;;;21.63;30.40;98504.81;5055451;28;1232;-77
2023/09/18 06:16:24;;;;;;;;;;;;;;;21.43;30.85;98507.59;5039315;28;1121;-77
2023/09/18 06:18:50;;;;;;;;;;;;;;;21.89;30.02;98503.91;5037764;28;1357;-78
2023/09/18 06:21:15;;;;;;;;;;;;;;;22.00;29.86;98500.84;5054843;28;1352;-77
2023/09/18 06:23:40;;;;;;;;;;;;;;;21.99;29.90;98513.41;5021742;28;1969;-78
2023/09/18 06:26:06;;;;;;;;;;;;;;;21.64;30.65;98515.69;5055819;28;1423;-77
2023/09/18 06:28:32;;;;;;;;;;;;;;;21.74;30.44;98516.72;5038748;28;904;-77
2023/09/18 06:30:57;;;;;;;;;;;;;;;21.78;30.29;98528.81;5055107;28;1380;-77
2023/09/18 06:33:23;;;;;;;;;;;;;;;21.82;30.31;98519.00;5054328;28;972;-77
2023/09/18 06:35:48;;;;;;;;;;;;;;;21.76;30.23;98519.91;5014044;28;1589;-77
2023/09/18 06:38:15;;;;;;;;;;;;;;;21.95;30.06;98524.03;4978571;28;1531;-77
2023/09/18 06:40:40;;;;;;;;;;;;;;;21.58;30.51;98520.25;4998456;28;1273;-77
2023/09/18 06:43:06;;;;;;;;;;;;;;;21.56;30.63;98517.88;4982496;28;1416;-77
2023/09/18 06:45:33;;;;;;;;;;;;;;;21.76;30.47;98526.41;4999376;28;1993;-77
2023/09/18 06:48:00;;;;;;;;;;;;;;;21.84;30.32;98527.84;4983322;28;879;-77
2023/09/18 06:50:25;;;;;;;;;;;;;;;21.87;30.47;98525.41;4998964;28;1197;-78
2023/09/18 06:52:51;;;;;;;;;;;;;;;21.70;30.62;98533.78;5014271;28;1555;-77
2023/09/18 06:55:16;;;;;;;;;;;;;;;21.77;30.61;98528.00;5014724;28;1962;-78
2023/09/18 06:57:42;;;;;;;;;;;;;;;22.09;30.13;98518.88;4999301;28;986;-78
2023/09/18 07:00:08;;;;;;;;;;;;;;;21.82;30.62;98521.84;5015396;28;1036;-77
2023/09/18 07:02:33;;;;;;;;;;;;;;;21.78;30.67;98523.94;4978984;28;1159;-78
2023/09/18 07:04:59;;;;;;;;;;;;;;;21.77;30.58;98516.69;4995195;28;1979;-77
2023/09/18 07:07:27;;;;;;;;;;;;;;;21.66;30.87;98516.09;4978842;28;956;-77
2023/09/18 07:09:53;;;;;;;;;;;;;;;21.78;30.68;98506.16;4979131;28;1302;-77
2023/09/18 07:12:19;;;;;;;;;;;;;;;21.66;30.73;98524.56;5003872;28;1656;-77
2023/09/18 07:14:45;;;;;;;;;;;;;;;21.81;30.34;98506.09;5019755;28;1683;-78
2023/09/18 07:17:10;;;;;;;;;;;;;;;21.91;30.45;98520.44;5001908;28;1115;-77
2023/09/18 07:19:36;;;;;;;;;;;;;;;22.06;29.88;98521.75;5015021;28;1114;-77
2023/09/18 07:22:02;;;;;;;;;;;;;;;22.03;30.18;98512.13;5014719;28;965;-77
2023/09/18 07:24:27;;;;;;;;;;;;;;;21.77;30.51;98522.34;4994136;28;1906;-77
2023/09/18 07:26:54;;;;;;;;;;;;;;;22.01;30.08;98530.78;5010923;28;1754;-77
2023/09/18 07:29:20;;;;;;;;;;;;;;;21.90;30.35;98518.84;4979035;28;944;-77
2023/09/18 07:31:45;;;;;;;;;;;;;;;21.98;30.36;98515.47;5005950;28;1491;-78
2023/09/18 07:34:11;;;;;;;;;;;;;;;21.98;30.31;98526.78;4978852;28;1055;-77
2023/09/18 07:36:36;;;;;;;;;;;;;;;22.11;30.02;98521.28;4997761;28;890;-77
2023/09/18 07:39:04;;;;;;;;;;;;;;;21.70;30.92;98516.78;5000256;28;1254;-77
2023/09/18 07:41:29;;;;;;;;;;;;;;;21.66;30.67;98533.06;5018079;28;913;-78
2023/09/18 07:43:57;;;;;;;;;;;;;;;22.05;30.10;98531.50;5048893;28;1983;-78
2023/09/18 07:46:22;;;;;;;;;;;;;;;21.79;30.61;98531.19;5037626;28;888;-77
2023/09/18 07:48:48;;;;;;;;;;;;;;;22.08;29.95;98519.31;5037319;28;979;-78
2023/09/18 07:51:15;;;;;;;;;;;;;;;21.95;30.01;98533.31;5069256;28;915;-77
2023/09/18 07:53:41;;;;;;;;;;;;;;;21.70;30.36;98533.78;5057846;28;1064;-77
2023/09/18 07:56:07;;;;;;;;;;;;;;;21.95;29.97;98526.84;5057741;28;1049;-77
2023/09/18 07:58:33;;;;;;;;;;;;;;;21.97;30.22;98530.06;5074054;28;984;-78
2023/09/18 08:00:59;;;;;;;;;;;;;;;22.11;29.74;98524.13;5037586;28;945;-78
2023/09/18 08:03:24;;;;;;;;;;;;;;;21.66;30.66;98521.75;5053586;28;1961;-78
2023/09/18 08:05:52;;;;;;;;;;;;;;;21.60;30.94;98529.13;5053657;28;920;-79
2023/09/18 08:08:19;;;;;;;;;;;;;;;21.91;30.12;98526.13;5023452;28;1285;-78
2023/09/18 08:10:45;;;;;;;;;;;;;;;22.01;29.96;98525.91;5046982;28;1015;-78
2023/09/18 08:13:11;;;;;;;;;;;;;;;21.97;30.34;98524.41;5044414;28;1032;-77
2023/09/18 08:15:37;;;;;;;;;;;;;;;22.00;30.18;98523.50;5054049;28;1978;-77
2023/09/18 08:18:03;;;;;;;;;;;;;;;22.16;29.75;98526.44;5054282;28;1962;-78
2023/09/18 08:20:28;;;;;;;;;;;;;;;21.91;30.14;98509.13;5055202;28;1036;-78
2023/09/18 08:22:54;;;;;;;;;;;;;;;22.14;29.66;98513.97;5056202;28;1123;-77
2023/09/18 08:25:20;;;;;;;;;;;;;;;21.97;29.89;98508.19;5055856;28;1985;-78
2023/09/18 08:27:46;;;;;;;;;;;;;;;22.07;29.82;98512.03;5055723;28;945;-77
2023/09/18 08:30:12;;;;;;;;;;;;;;;21.97;29.94;98513.06;5054575;28;894;-78
2023/09/18 08:32:38;;;;;;;;;;;;;;;22.23;29.72;98514.97;5053768;28;1682;-77
2023/09/18 08:35:04;;;;;;;;;;;;;;;21.83;30.21;98503.59;5031710;28;1621;-78
2023/09/18 08:37:29;;;;;;;;;;;;;;;21.77;30.23;98510.22;5033362;28;896;-78
2023/09/18 08:39:55;;;;;;;;;;;;;;;21.88;29.83;98498.66;5033337;28;1014;-77
2023/09/18 08:42:20;;;;;;;;;;;;;;;21.82;30.42;98507.69;5012167;28;1715;-78
2023/09/18 08:44:46;;;;;;;;;;;;;;;22.14;29.76;98494.91;4997537;28;1971;-78
2023/09/18 08:47:12;;;;;;;;;;;;;;;22.19;29.54;98496.44;5000354;28;1849;-78
2023/09/18 08:49:37;;;;;;;;;;;;;;;21.94;30.02;98508.25;5013839;28;921;-77
2023/09/18 08:52:03;;;;;;;;;;;;;;;21.85;30.34;98501.13;5023030;28;903;-77
2023/09/18 08:54:29;;;;;;;;;;;;;;;22.11;29.69;98498.63;5017112;28;997;-78
2023/09/18 08:56:54;;;;;;;;;;;;;;;21.97;29.62;98496.06;5037170;28;953;-78
2023/09/18 08:59:23;;;;;;;;;;;;;;;21.88;30.08;98498.66;5037285;28;1010;-77
2023/09/18 09:01:48;;;;;;;;;;;;;;;21.88;29.99;98505.13;5020985;28;1291;-77
2023/09/18 09:04:14;;;;;;;;;;;;;;;21.84;30.10;98502.38;5033488;28;1902;-78
2023/09/18 09:06:40;;;;;;;;;;;;;;;21.94;30.13;98497.72;5064708;28;990;-78
2023/09/18 09:09:05;;;;;;;;;;;;;;;22.13;30.02;98499.00;5058862;28;1705;-77
2023/09/18 09:11:31;;;;;;;;;;;;;;;21.88;30.05;98498.66;5058958;28;1005;-77
2023/09/18 09:14:11;;;;;;;;;;;;;;;21.68;30.47;98504.31;5059409;28;1080;-78
2023/09/18 09:16:41;;;;;;;;;;;;;;;21.91;30.32;98504.25;5056420;28;1730;-78
2023/09/18 09:19:07;;;;;;;;;;;;;;;21.97;30.22;98507.41;5058475;28;906;-77
2023/09/18 09:21:39;;;;;;;;;;;;;;;22.00;30.00;98523.50;5019708;28;1593;-78
2023/09/18 09:24:05;;;;;;;;;;;;;;;22.01;30.07;98519.44;5036527;28;1975;-77
2023/09/18 09:26:30;;;;;;;;;;;;;;;22.21;29.62;98527.97;5019938;28;977;-77
2023/09/18 09:28:56;;;;;;;;;;;;;;;22.02;29.79;98521.03;5036302;28;1041;-78
2023/09/18 09:31:25;;;;;;;;;;;;;;;22.04;30.00;98518.59;5036243;28;948;-78
2023/09/18 09:33:56;;;;;;;;;;;;;;;22.18;29.77;98506.19;5018634;28;1355;-78
2023/09/18 09:36:22;;;;;;;;;;;;;;;21.97;30.04;98518.72;5036630;28;923;-77
2023/09/18 09:38:47;;;;;;;;;;;;;;;22.04;29.84;98512.91;5036253;28;984;-78
2023/09/18 09:41:16;;;;;;;;;;;;;;;22.21;29.63;98517.44;5020267;28;976;-78
2023/09/18 09:43:42;;;;;;;;;;;;;;;22.00;30.06;98506.50;5035828;28;1894;-78
2023/09/18 09:46:10;;;;;;;;;;;;;;;22.03;30.12;98511.31;5019674;28;1119;-77
2023/09/18 09:48:36;;;;;;;;;;;;;;;22.13;29.78;98516.00;5032893;28;1609;-77
2023/09/18 09:51:01;;;;;;;;;;;;;;;22.23;29.76;98500.81;5019835;28;1340;-78
2023/09/18 09:53:47;;;;;;;;;;;;;;;22.17;29.84;98499.69;5055545;28;926;-77
2023/09/18 09:56:12;;;;;;;;;;;;;;;21.91;30.23;98509.13;5040448;28;1092;-77
2023/09/18 09:58:41;;;;;;;;;;;;;;;21.99;30.20;98504.91;5058376;28;925;-78
2023/09/18 10:01:10;;;;;;;;;;;;;;;22.14;29.72;98506.25;5056897;28;895;-77
2023/09/18 10:03:36;;;;;;;;;;;;;;;22.33;29.64;98501.81;5056024;28;1984;-78
2023/09/18 10:06:02;;;;;;;;;;;;;;;22.08;29.94;98510.81;5056624;28;951;-77
2023/09/18 10:08:27;;;;;;;;;;;;;;;21.91;30.14;98497.78;5057192;28;1013;-78
2023/09/18 10:10:54;;;;;;;;;;;;;;;22.10;29.99;98497.00;5040107;28;1357;-78
2023/09/18 10:13:20;;;;;;;;;;;;;;;21.89;30.18;98505.94;5039764;28;1152;-77
2023/09/18 10:15:46;;;;;;;;;;;;;;;22.00;30.25;98495.19;5056307;28;1930;-77
2023/09/18 10:18:20;;;;;;;;;;;;;;;21.97;30.18;98502.53;5059375;28;1774;-77
2023/09/18 10:20:48;;;;;;;;;;;;;;;21.98;29.97;98495.63;5056189;28;1558;-78
2023/09/18 10:23:20;;;;;;;;;;;;;;;22.14;29.65;98482.78;5035043;28;1609;-77
2023/09/18 10:25:47;;;;;;;;;;;;;;;21.97;30.12;98482.69;5003391;28;938;-78
2023/09/18 10:28:13;;;;;;;;;;;;;;;22.24;29.62;98485.38;5019127;28;927;-78
2023/09/18 10:30:39;;;;;;;;;;;;;;;22.16;30.00;98480.31;5002725;28;1076;-78
2023/09/18 10:33:07;;;;;;;;;;;;;;;22.13;29.95;98482.00;4995549;28;970;-78
2023/09/18 10:35:32;;;;;;;;;;;;;;;22.16;30.01;98492.44;4980069;28;1543;-78
2023/09/18 10:37:58;;;;;;;;;;;;;;;22.10;29.79;98488.50;4970272;28;951;-77
2023/09/18 10:40:26;;;;;;;;;;;;;;;22.05;30.11;98486.16;4941260;29;1014;-78
2023/09/18 10:42:51;;;;;;;;;;;;;;;22.23;29.85;98480.97;4956612;28;957;-78
2023/09/18 10:45:17;;;;;;;;;;;;;;;22.15;29.95;98479.50;4957107;28;1883;-78
2023/09/18 10:47:45;;;;;;;;;;;;;;;21.96;30.35;98489.56;4918157;29;984;-77
2023/09/18 10:50:10;;;;;;;;;;;;;;;21.90;30.36;98479.19;4918683;29;883;-78
2023/09/18 10:52:36;;;;;;;;;;;;;;;21.83;30.32;98475.28;4937387;29;1597;-77
2023/09/18 10:55:04;;;;;;;;;;;;;;;21.92;30.23;98474.69;4953950;29;2001;-77
2023/09/18 10:57:34;;;;;;;;;;;;;;;21.79;30.56;98474.53;4956808;29;904;-77
2023/09/18 10:59:59;;;;;;;;;;;;;;;21.91;30.50;98472.28;4940873;29;1013;-78
2023/09/18 11:02:25;;;;;;;;;;;;;;;22.01;29.94;98474.09;4940198;29;1855;-78
2023/09/18 11:04:51;;;;;;;;;;;;;;;22.01;29.98;98471.25;4988516;28;1983;-77
2023/09/18 11:07:20;;;;;;;;;;;;;;;22.09;30.00;98467.06;4979217;28;1356;-77
2023/09/18 11:09:45;;;;;;;;;;;;;;;22.02;30.08;98475.69;4959412;28;1682;-77
2023/09/18 11:12:11;;;;;;;;;;;;;;;21.99;30.01;98470.91;4975480;28;1325;-78
2023/09/18 11:14:52;;;;;;;;;;;;;;;22.14;29.87;98466.56;4982528;28;1045;-78
2023/09/18 11:17:35;;;;;;;;;;;;;;;22.17;29.83;98474.19;4998012;28;1043;-77
2023/09/18 11:20:22;;;;;;;;;;;;;;;21.75;30.55;98470.19;5014501;28;945;-77
2023/09/18 11:22:48;;;;;;;;;;;;;;;21.89;30.56;98463.44;5016714;28;1573;-77
2023/09/18 11:25:37;;;;;;;;;;;;;;;21.88;30.46;98476.00;5045113;28;1906;-77
2023/09/18 11:28:03;;;;;;;;;;;;;;;22.19;29.88;98456.75;5034252;28;1048;-77
2023/09/18 11:30:29;;;;;;;;;;;;;;;21.73;30.59;98475.50;5001328;28;1006;-77
2023/09/18 11:32:57;;;;;;;;;;;;;;;21.64;30.75;98467.56;5017772;28;1281;-77
2023/09/18 11:35:23;;;;;;;;;;;;;;;22.01;30.45;98474.09;5018656;28;1050;-78
2023/09/18 11:38:05;;;;;;;;;;;;;;;21.81;30.74;98471.25;5017358;28;888;-77
2023/09/18 11:40:33;;;;;;;;;;;;;;;21.79;30.76;98471.72;5016650;28;1771;-78
2023/09/18 11:43:18;;;;;;;;;;;;;;;21.97;30.23;98456.41;5033724;28;1274;-77
2023/09/18 11:45:43;;;;;;;;;;;;;;;22.22;29.83;98439.66;5033651;28;1975;-78
2023/09/18 11:48:10;;;;;;;;;;;;;;;22.12;30.16;98454.84;5017373;28;1153;-77
2023/09/18 11:50:36;;;;;;;;;;;;;;;21.98;30.41;98452.31;5017462;28;933;-78
2023/09/18 11:53:02;;;;;;;;;;;;;;;22.20;29.83;98453.47;5017411;28;996;-78
2023/09/18 11:55:28;;;;;;;;;;;;;;;22.21;30.12;98455.06;5017631;28;989;-78
2023/09/18 11:57:58;;;;;;;;;;;;;;;22.04;30.20;98456.22;5023607;28;1950;-78
2023/09/18 12:00:25;;;;;;;;;;;;;;;22.26;29.97;98459.44;5017687;28;977;-77
2023/09/18 12:02:50;;;;;;;;;;;;;;;22.33;29.79;98456.47;5033737;28;964;-77
2023/09/18 12:05:17;;;;;;;;;;;;;;;22.08;30.08;98452.09;5038328;28;1918;-78
2023/09/18 12:07:44;;;;;;;;;;;;;;;22.08;30.32;98456.97;5055136;28;903;-78
2023/09/18 12:10:10;;;;;;;;;;;;;;;22.01;30.14;98457.09;5055616;28;887;-77
2023/09/18 12:12:36;;;;;;;;;;;;;;;21.99;30.01;98448.25;5037284;28;1759;-77
2023/09/18 12:15:01;;;;;;;;;;;;;;;22.32;29.89;98444.28;5054828;28;1166;-77
2023/09/18 12:17:27;;;;;;;;;;;;;;;21.95;30.34;98453.19;5056286;28;849;-78
2023/09/18 12:19:53;;;;;;;;;;;;;;;21.95;30.35;98451.16;5055575;28;838;-76
2023/09/18 12:22:29;;;;;;;;;;;;;;;22.27;29.56;98441.97;5054332;28;913;-78
2023/09/18 12:25:09;;;;;;;;;;;;;;;22.28;29.87;98454.13;5054332;28;1985;-77
2023/09/18 12:27:38;;;;;;;;;;;;;;;22.42;29.37;98453.78;5055372;28;1677;-77
2023/09/18 12:30:07;;;;;;;;;;;;;;;22.31;29.80;98450.41;5022468;28;1302;-78
2023/09/18 12:32:32;;;;;;;;;;;;;;;22.36;29.81;98444.22;5058713;28;991;-77
2023/09/18 12:34:58;;;;;;;;;;;;;;;22.49;29.46;98442.31;5058808;28;1003;-77
2023/09/18 12:37:23;;;;;;;;;;;;;;;22.31;29.73;98454.03;5042010;28;905;-77
2023/09/18 12:39:51;;;;;;;;;;;;;;;22.08;29.98;98451.28;5041983;28;1092;-78
2023/09/18 12:42:18;;;;;;;;;;;;;;;22.27;29.96;98447.66;5058951;28;1705;-77
2023/09/18 12:44:44;;;;;;;;;;;;;;;22.42;29.25;98447.31;5058604;28;1906;-78
2023/09/18 12:47:10;;;;;;;;;;;;;;;22.32;29.60;98432.16;5058344;28;907;-78
2023/09/18 12:49:37;;;;;;;;;;;;;;;22.42;29.38;98441.66;5058204;28;912;-78
2023/09/18 12:52:10;;;;;;;;;;;;;;;22.30;29.67;98441.09;5057929;28;1143;-78
2023/09/18 12:54:42;;;;;;;;;;;;;;;22.33;29.48;98440.25;5058660;28;993;-79
2023/09/18 12:57:09;;;;;;;;;;;;;;;22.25;29.70;98435.16;5057309;28;1792;-78